sensor_id;sensor_type;location;lat;lon;timestamp;P1;durP1;ratioP1;P2;durP2;ratioP2
40931;SDS011;36257;46.052;12.540;2022-12-18T00:00:39;5.50;;;5.10;;
40931;SDS011;36257;46.052;12.540;2022-12-18T00:03:06;5.63;;;5.23;;
40931;SDS011;36257;46.052;12.540;2022-12-18T00:05:32;5.60;;;5.20;;
40931;SDS011;36257;46.052;12.540;2022-12-18T00:07:58;5.50;;;5.10;;
40931;SDS011;36257;46.052;12.540;2022-12-18T00:10:23;12.03;;;8.57;;
40931;SDS011;36257;46.052;12.540;2022-12-18T00:12:49;14.83;;;11.10;;
40931;SDS011;36257;46.052;12.540;2022-12-18T00:15:15;8.10;;;7.30;;
40931;SDS011;36257;46.052;12.540;2022-12-18T00:17:40;5.87;;;5.43;;
40931;SDS011;36257;46.052;12.540;2022-12-18T00:20:06;5.23;;;4.80;;
40931;SDS011;36257;46.052;12.540;2022-12-18T00:22:32;4.90;;;4.53;;
40931;SDS011;36257;46.052;12.540;2022-12-18T00:24:58;5.47;;;4.97;;
40931;SDS011;36257;46.052;12.540;2022-12-18T00:27:24;5.47;;;5.17;;
40931;SDS011;36257;46.052;12.540;2022-12-18T00:29:49;6.03;;;5.53;;
40931;SDS011;36257;46.052;12.540;2022-12-18T00:32:15;6.77;;;6.30;;
40931;SDS011;36257;46.052;12.540;2022-12-18T00:34:41;5.37;;;5.00;;
40931;SDS011;36257;46.052;12.540;2022-12-18T00:37:06;5.53;;;5.13;;
40931;SDS011;36257;46.052;12.540;2022-12-18T00:39:32;5.90;;;5.50;;
40931;SDS011;36257;46.052;12.540;2022-12-18T00:41:58;5.60;;;5.20;;
40931;SDS011;36257;46.052;12.540;2022-12-18T00:44:42;5.77;;;5.37;;
40931;SDS011;36257;46.052;12.540;2022-12-18T00:47:07;6.27;;;5.80;;
40931;SDS011;36257;46.052;12.540;2022-12-18T00:49:33;6.03;;;5.63;;
40931;SDS011;36257;46.052;12.540;2022-12-18T00:51:59;7.00;;;6.50;;
40931;SDS011;36257;46.052;12.540;2022-12-18T00:54:24;6.60;;;6.10;;
40931;SDS011;36257;46.052;12.540;2022-12-18T00:56:50;10.73;;;9.67;;
40931;SDS011;36257;46.052;12.540;2022-12-18T00:59:16;11.27;;;10.17;;
40931;SDS011;36257;46.052;12.540;2022-12-18T01:01:42;10.15;;;9.02;;
40931;SDS011;36257;46.052;12.540;2022-12-18T01:04:08;10.90;;;9.93;;
40931;SDS011;36257;46.052;12.540;2022-12-18T01:06:34;10.07;;;9.03;;
40931;SDS011;36257;46.052;12.540;2022-12-18T01:08:59;10.37;;;9.27;;
40931;SDS011;36257;46.052;12.540;2022-12-18T01:11:25;9.40;;;8.40;;
40931;SDS011;36257;46.052;12.540;2022-12-18T01:13:51;10.47;;;9.27;;
40931;SDS011;36257;46.052;12.540;2022-12-18T01:18:44;9.17;;;8.40;;
40931;SDS011;36257;46.052;12.540;2022-12-18T01:21:11;8.90;;;8.10;;
40931;SDS011;36257;46.052;12.540;2022-12-18T01:23:39;9.90;;;8.90;;
40931;SDS011;36257;46.052;12.540;2022-12-18T01:26:10;10.33;;;9.37;;
40931;SDS011;36257;46.052;12.540;2022-12-18T01:28:38;9.73;;;8.83;;
40931;SDS011;36257;46.052;12.540;2022-12-18T01:31:11;10.10;;;9.00;;
40931;SDS011;36257;46.052;12.540;2022-12-18T01:33:48;9.70;;;8.90;;
40931;SDS011;36257;46.052;12.540;2022-12-18T01:36:18;10.60;;;9.40;;
40931;SDS011;36257;46.052;12.540;2022-12-18T01:38:45;9.40;;;8.33;;
40931;SDS011;36257;46.052;12.540;2022-12-18T01:41:12;12.13;;;8.07;;
40931;SDS011;36257;46.052;12.540;2022-12-18T01:46:13;8.87;;;8.07;;
40931;SDS011;36257;46.052;12.540;2022-12-18T01:48:39;9.50;;;8.70;;
40931;SDS011;36257;46.052;12.540;2022-12-18T01:51:06;8.40;;;7.70;;
40931;SDS011;36257;46.052;12.540;2022-12-18T01:53:33;8.17;;;7.47;;
40931;SDS011;36257;46.052;12.540;2022-12-18T01:56:00;7.57;;;6.97;;
40931;SDS011;36257;46.052;12.540;2022-12-18T01:58:43;7.27;;;6.67;;
40931;SDS011;36257;46.052;12.540;2022-12-18T02:01:10;7.20;;;6.60;;
40931;SDS011;36257;46.052;12.540;2022-12-18T02:03:36;7.23;;;6.63;;
40931;SDS011;36257;46.052;12.540;2022-12-18T02:08:33;7.80;;;7.13;;
40931;SDS011;36257;46.052;12.540;2022-12-18T02:11:05;5.87;;;5.40;;
40931;SDS011;36257;46.052;12.540;2022-12-18T02:18:47;6.27;;;5.77;;
40931;SDS011;36257;46.052;12.540;2022-12-18T02:24:35;6.87;;;6.37;;
40931;SDS011;36257;46.052;12.540;2022-12-18T02:27:05;6.40;;;5.80;;
40931;SDS011;36257;46.052;12.540;2022-12-18T02:32:28;6.30;;;5.90;;
40931;SDS011;36257;46.052;12.540;2022-12-18T02:34:57;6.13;;;5.73;;
40931;SDS011;36257;46.052;12.540;2022-12-18T02:37:24;6.60;;;6.10;;
40931;SDS011;36257;46.052;12.540;2022-12-18T02:39:52;6.37;;;5.87;;
40931;SDS011;36257;46.052;12.540;2022-12-18T02:42:21;5.90;;;5.50;;
40931;SDS011;36257;46.052;12.540;2022-12-18T02:44:49;5.93;;;5.53;;
40931;SDS011;36257;46.052;12.540;2022-12-18T02:47:17;6.70;;;6.23;;
40931;SDS011;36257;46.052;12.540;2022-12-18T02:49:59;6.83;;;6.40;;
40931;SDS011;36257;46.052;12.540;2022-12-18T02:55:17;8.55;;;6.40;;
40931;SDS011;36257;46.052;12.540;2022-12-18T03:03:48;6.13;;;5.73;;
40931;SDS011;36257;46.052;12.540;2022-12-18T03:06:33;7.37;;;6.77;;
40931;SDS011;36257;46.052;12.540;2022-12-18T03:09:09;5.53;;;5.23;;
40931;SDS011;36257;46.052;12.540;2022-12-18T03:11:49;7.47;;;6.77;;
40931;SDS011;36257;46.052;12.540;2022-12-18T03:14:39;6.63;;;6.13;;
40931;SDS011;36257;46.052;12.540;2022-12-18T03:17:07;7.20;;;6.60;;
40931;SDS011;36257;46.052;12.540;2022-12-18T03:19:35;6.97;;;6.47;;
40931;SDS011;36257;46.052;12.540;2022-12-18T03:22:04;6.30;;;5.90;;
40931;SDS011;36257;46.052;12.540;2022-12-18T03:24:32;7.10;;;6.60;;
40931;SDS011;36257;46.052;12.540;2022-12-18T03:27:00;7.70;;;7.10;;
40931;SDS011;36257;46.052;12.540;2022-12-18T03:29:32;7.03;;;6.53;;
40931;SDS011;36257;46.052;12.540;2022-12-18T03:32:01;6.67;;;6.10;;
40931;SDS011;36257;46.052;12.540;2022-12-18T03:34:35;5.77;;;5.37;;
40931;SDS011;36257;46.052;12.540;2022-12-18T03:37:04;6.80;;;6.40;;
40931;SDS011;36257;46.052;12.540;2022-12-18T03:39:30;6.90;;;6.40;;
40931;SDS011;36257;46.052;12.540;2022-12-18T03:47:07;7.00;;;6.50;;
40931;SDS011;36257;46.052;12.540;2022-12-18T03:52:43;6.97;;;6.57;;
40931;SDS011;36257;46.052;12.540;2022-12-18T03:55:15;7.33;;;6.83;;
40931;SDS011;36257;46.052;12.540;2022-12-18T03:57:43;6.90;;;6.40;;
40931;SDS011;36257;46.052;12.540;2022-12-18T04:00:11;6.70;;;6.20;;
40931;SDS011;36257;46.052;12.540;2022-12-18T04:02:40;6.70;;;6.20;;
40931;SDS011;36257;46.052;12.540;2022-12-18T04:05:09;7.27;;;6.77;;
40931;SDS011;36257;46.052;12.540;2022-12-18T04:07:36;7.65;;;7.07;;
40931;SDS011;36257;46.052;12.540;2022-12-18T04:10:03;7.40;;;6.80;;
40931;SDS011;36257;46.052;12.540;2022-12-18T04:12:31;6.80;;;6.30;;
40931;SDS011;36257;46.052;12.540;2022-12-18T04:14:57;6.57;;;6.10;;
40931;SDS011;36257;46.052;12.540;2022-12-18T04:17:23;7.20;;;6.70;;
40931;SDS011;36257;46.052;12.540;2022-12-18T04:19:48;7.23;;;6.57;;
40931;SDS011;36257;46.052;12.540;2022-12-18T04:22:14;6.30;;;5.90;;
40931;SDS011;36257;46.052;12.540;2022-12-18T04:24:40;8.90;;;6.57;;
40931;SDS011;36257;46.052;12.540;2022-12-18T04:27:06;6.47;;;6.07;;
40931;SDS011;36257;46.052;12.540;2022-12-18T04:29:32;6.50;;;6.10;;
40931;SDS011;36257;46.052;12.540;2022-12-18T04:31:57;6.47;;;6.07;;
40931;SDS011;36257;46.052;12.540;2022-12-18T04:34:23;7.37;;;6.93;;
40931;SDS011;36257;46.052;12.540;2022-12-18T04:36:49;7.30;;;6.80;;
40931;SDS011;36257;46.052;12.540;2022-12-18T04:39:17;5.97;;;5.57;;
40931;SDS011;36257;46.052;12.540;2022-12-18T04:41:43;7.03;;;6.53;;
40931;SDS011;36257;46.052;12.540;2022-12-18T04:44:09;6.03;;;5.63;;
40931;SDS011;36257;46.052;12.540;2022-12-18T04:46:34;7.27;;;6.83;;
40931;SDS011;36257;46.052;12.540;2022-12-18T04:49:00;6.27;;;5.87;;
40931;SDS011;36257;46.052;12.540;2022-12-18T04:51:26;7.47;;;6.60;;
40931;SDS011;36257;46.052;12.540;2022-12-18T04:53:51;6.93;;;6.53;;
40931;SDS011;36257;46.052;12.540;2022-12-18T04:56:17;7.10;;;6.57;;
40931;SDS011;36257;46.052;12.540;2022-12-18T04:58:44;6.07;;;5.57;;
40931;SDS011;36257;46.052;12.540;2022-12-18T05:01:12;6.37;;;5.87;;
40931;SDS011;36257;46.052;12.540;2022-12-18T05:03:39;6.33;;;5.93;;
40931;SDS011;36257;46.052;12.540;2022-12-18T05:06:06;6.07;;;5.67;;
40931;SDS011;36257;46.052;12.540;2022-12-18T05:08:32;6.50;;;6.07;;
40931;SDS011;36257;46.052;12.540;2022-12-18T05:10:58;5.80;;;5.43;;
40931;SDS011;36257;46.052;12.540;2022-12-18T05:13:25;6.25;;;5.70;;
40931;SDS011;36257;46.052;12.540;2022-12-18T05:15:52;6.47;;;5.87;;
40931;SDS011;36257;46.052;12.540;2022-12-18T05:18:18;7.00;;;6.38;;
40931;SDS011;36257;46.052;12.540;2022-12-18T05:20:43;6.90;;;6.30;;
40931;SDS011;36257;46.052;12.540;2022-12-18T05:23:09;7.17;;;6.63;;
40931;SDS011;36257;46.052;12.540;2022-12-18T05:25:35;7.50;;;6.93;;
40931;SDS011;36257;46.052;12.540;2022-12-18T05:28:00;7.57;;;7.07;;
40931;SDS011;36257;46.052;12.540;2022-12-18T05:30:26;7.40;;;6.83;;
40931;SDS011;36257;46.052;12.540;2022-12-18T05:32:52;6.80;;;6.40;;
40931;SDS011;36257;46.052;12.540;2022-12-18T05:35:18;6.93;;;6.33;;
40931;SDS011;36257;46.052;12.540;2022-12-18T05:37:44;6.83;;;6.37;;
40931;SDS011;36257;46.052;12.540;2022-12-18T05:40:10;6.67;;;6.17;;
40931;SDS011;36257;46.052;12.540;2022-12-18T05:42:36;6.70;;;6.30;;
40931;SDS011;36257;46.052;12.540;2022-12-18T05:45:02;7.73;;;7.23;;
40931;SDS011;36257;46.052;12.540;2022-12-18T05:47:29;7.70;;;7.20;;
40931;SDS011;36257;46.052;12.540;2022-12-18T05:49:54;6.70;;;6.30;;
40931;SDS011;36257;46.052;12.540;2022-12-18T05:52:20;6.67;;;6.17;;
40931;SDS011;36257;46.052;12.540;2022-12-18T05:54:46;7.20;;;6.60;;
40931;SDS011;36257;46.052;12.540;2022-12-18T05:57:11;7.50;;;6.77;;
40931;SDS011;36257;46.052;12.540;2022-12-18T05:59:37;30.73;;;18.67;;
40931;SDS011;36257;46.052;12.540;2022-12-18T06:02:03;23.10;;;18.17;;
40931;SDS011;36257;46.052;12.540;2022-12-18T06:04:29;8.60;;;7.77;;
40931;SDS011;36257;46.052;12.540;2022-12-18T06:06:54;7.57;;;6.93;;
40931;SDS011;36257;46.052;12.540;2022-12-18T06:09:20;7.63;;;7.07;;
40931;SDS011;36257;46.052;12.540;2022-12-18T06:11:45;7.10;;;6.60;;
40931;SDS011;36257;46.052;12.540;2022-12-18T06:14:11;10.67;;;9.77;;
40931;SDS011;36257;46.052;12.540;2022-12-18T06:16:37;13.50;;;12.20;;
40931;SDS011;36257;46.052;12.540;2022-12-18T06:19:03;23.47;;;20.63;;
40931;SDS011;36257;46.052;12.540;2022-12-18T06:21:33;34.20;;;25.70;;
40931;SDS011;36257;46.052;12.540;2022-12-18T06:23:59;31.43;;;21.87;;
40931;SDS011;36257;46.052;12.540;2022-12-18T06:26:27;33.97;;;22.43;;
40931;SDS011;36257;46.052;12.540;2022-12-18T06:28:53;52.67;;;32.53;;
40931;SDS011;36257;46.052;12.540;2022-12-18T06:31:19;69.07;;;38.67;;
40931;SDS011;36257;46.052;12.540;2022-12-18T06:33:44;41.90;;;27.47;;
40931;SDS011;36257;46.052;12.540;2022-12-18T06:36:11;28.47;;;22.37;;
40931;SDS011;36257;46.052;12.540;2022-12-18T06:38:39;15.95;;;14.30;;
40931;SDS011;36257;46.052;12.540;2022-12-18T06:41:10;10.43;;;9.53;;
40931;SDS011;36257;46.052;12.540;2022-12-18T06:43:38;21.50;;;18.07;;
40931;SDS011;36257;46.052;12.540;2022-12-18T06:46:13;12.13;;;11.03;;
40931;SDS011;36257;46.052;12.540;2022-12-18T06:48:39;9.73;;;8.93;;
40931;SDS011;36257;46.052;12.540;2022-12-18T06:51:05;7.53;;;7.03;;
40931;SDS011;36257;46.052;12.540;2022-12-18T06:53:31;11.47;;;10.37;;
40931;SDS011;36257;46.052;12.540;2022-12-18T06:56:04;16.67;;;13.27;;
40931;SDS011;36257;46.052;12.540;2022-12-18T06:58:32;48.03;;;35.00;;
40931;SDS011;36257;46.052;12.540;2022-12-18T07:01:02;17.90;;;14.00;;
40931;SDS011;36257;46.052;12.540;2022-12-18T07:03:29;11.77;;;10.77;;
40931;SDS011;36257;46.052;12.540;2022-12-18T07:05:55;7.93;;;7.33;;
40931;SDS011;36257;46.052;12.540;2022-12-18T07:08:21;8.77;;;7.97;;
40931;SDS011;36257;46.052;12.540;2022-12-18T07:10:47;6.43;;;6.03;;
40931;SDS011;36257;46.052;12.540;2022-12-18T07:13:14;8.18;;;7.57;;
40931;SDS011;36257;46.052;12.540;2022-12-18T07:15:40;6.37;;;5.87;;
40931;SDS011;36257;46.052;12.540;2022-12-18T07:18:06;6.50;;;6.10;;
40931;SDS011;36257;46.052;12.540;2022-12-18T07:20:31;6.13;;;5.73;;
40931;SDS011;36257;46.052;12.540;2022-12-18T07:22:57;11.33;;;10.23;;
40931;SDS011;36257;46.052;12.540;2022-12-18T07:25:22;8.40;;;7.80;;
40931;SDS011;36257;46.052;12.540;2022-12-18T07:27:48;6.33;;;5.93;;
40931;SDS011;36257;46.052;12.540;2022-12-18T07:30:14;6.03;;;5.57;;
40931;SDS011;36257;46.052;12.540;2022-12-18T07:32:39;6.10;;;5.70;;
40931;SDS011;36257;46.052;12.540;2022-12-18T07:35:05;5.93;;;5.47;;
40931;SDS011;36257;46.052;12.540;2022-12-18T07:37:31;8.67;;;7.97;;
40931;SDS011;36257;46.052;12.540;2022-12-18T07:39:56;7.07;;;6.57;;
40931;SDS011;36257;46.052;12.540;2022-12-18T07:42:22;8.10;;;7.50;;
40931;SDS011;36257;46.052;12.540;2022-12-18T07:44:57;10.23;;;7.73;;
40931;SDS011;36257;46.052;12.540;2022-12-18T07:47:23;8.60;;;7.80;;
40931;SDS011;36257;46.052;12.540;2022-12-18T07:49:49;9.63;;;8.73;;
40931;SDS011;36257;46.052;12.540;2022-12-18T07:52:14;11.00;;;10.00;;
40931;SDS011;36257;46.052;12.540;2022-12-18T07:54:40;10.60;;;9.73;;
40931;SDS011;36257;46.052;12.540;2022-12-18T07:57:06;8.80;;;8.00;;
40931;SDS011;36257;46.052;12.540;2022-12-18T07:59:32;9.50;;;8.53;;
40931;SDS011;36257;46.052;12.540;2022-12-18T08:01:58;12.10;;;9.57;;
40931;SDS011;36257;46.052;12.540;2022-12-18T08:04:23;10.07;;;9.00;;
40931;SDS011;36257;46.052;12.540;2022-12-18T08:06:49;12.20;;;10.90;;
40931;SDS011;36257;46.052;12.540;2022-12-18T08:09:15;20.50;;;15.47;;
40931;SDS011;36257;46.052;12.540;2022-12-18T08:11:41;18.30;;;14.07;;
40931;SDS011;36257;46.052;12.540;2022-12-18T08:14:07;17.07;;;14.63;;
40931;SDS011;36257;46.052;12.540;2022-12-18T08:16:33;20.10;;;16.13;;
40931;SDS011;36257;46.052;12.540;2022-12-18T08:18:59;17.67;;;14.27;;
40931;SDS011;36257;46.052;12.540;2022-12-18T08:21:25;15.40;;;12.67;;
40931;SDS011;36257;46.052;12.540;2022-12-18T08:23:54;12.40;;;10.73;;
40931;SDS011;36257;46.052;12.540;2022-12-18T08:28:47;9.70;;;8.70;;
40931;SDS011;36257;46.052;12.540;2022-12-18T08:31:13;10.97;;;9.93;;
40931;SDS011;36257;46.052;12.540;2022-12-18T08:33:40;10.70;;;9.60;;
40931;SDS011;36257;46.052;12.540;2022-12-18T08:36:06;12.18;;;10.90;;
40931;SDS011;36257;46.052;12.540;2022-12-18T08:38:33;13.10;;;10.77;;
40931;SDS011;36257;46.052;12.540;2022-12-18T08:40:59;11.97;;;10.77;;
40931;SDS011;36257;46.052;12.540;2022-12-18T08:43:26;11.07;;;9.05;;
40931;SDS011;36257;46.052;12.540;2022-12-18T08:46:10;12.37;;;11.07;;
40931;SDS011;36257;46.052;12.540;2022-12-18T08:48:36;20.27;;;13.60;;
40931;SDS011;36257;46.052;12.540;2022-12-18T08:51:02;19.47;;;14.63;;
40931;SDS011;36257;46.052;12.540;2022-12-18T08:53:27;12.43;;;11.20;;
40931;SDS011;36257;46.052;12.540;2022-12-18T08:55:53;10.47;;;9.47;;
40931;SDS011;36257;46.052;12.540;2022-12-18T08:58:21;12.02;;;9.65;;
40931;SDS011;36257;46.052;12.540;2022-12-18T09:00:46;28.70;;;16.80;;
40931;SDS011;36257;46.052;12.540;2022-12-18T09:03:12;22.67;;;16.20;;
40931;SDS011;36257;46.052;12.540;2022-12-18T09:05:39;35.97;;;21.80;;
40931;SDS011;36257;46.052;12.540;2022-12-18T09:08:05;26.53;;;16.77;;
40931;SDS011;36257;46.052;12.540;2022-12-18T09:10:31;18.23;;;12.83;;
40931;SDS011;36257;46.052;12.540;2022-12-18T09:12:57;12.13;;;10.83;;
40931;SDS011;36257;46.052;12.540;2022-12-18T09:15:22;14.27;;;9.60;;
40931;SDS011;36257;46.052;12.540;2022-12-18T09:17:48;23.37;;;14.70;;
40931;SDS011;36257;46.052;12.540;2022-12-18T09:20:15;28.53;;;15.80;;
40931;SDS011;36257;46.052;12.540;2022-12-18T09:22:41;16.35;;;10.63;;
40931;SDS011;36257;46.052;12.540;2022-12-18T09:25:06;17.27;;;13.73;;
40931;SDS011;36257;46.052;12.540;2022-12-18T09:27:33;10.93;;;9.83;;
40931;SDS011;36257;46.052;12.540;2022-12-18T09:29:59;10.70;;;9.60;;
40931;SDS011;36257;46.052;12.540;2022-12-18T09:32:24;10.88;;;9.57;;
40931;SDS011;36257;46.052;12.540;2022-12-18T09:34:50;11.77;;;10.50;;
40931;SDS011;36257;46.052;12.540;2022-12-18T09:37:16;11.48;;;10.32;;
40931;SDS011;36257;46.052;12.540;2022-12-18T09:39:41;10.13;;;8.73;;
40931;SDS011;36257;46.052;12.540;2022-12-18T09:42:09;8.63;;;7.75;;
40931;SDS011;36257;46.052;12.540;2022-12-18T09:44:49;11.40;;;9.25;;
40931;SDS011;36257;46.052;12.540;2022-12-18T09:47:22;9.82;;;8.50;;
40931;SDS011;36257;46.052;12.540;2022-12-18T09:50:02;9.68;;;8.68;;
40931;SDS011;36257;46.052;12.540;2022-12-18T09:52:39;9.52;;;8.40;;
40931;SDS011;36257;46.052;12.540;2022-12-18T09:55:24;11.02;;;9.23;;
40931;SDS011;36257;46.052;12.540;2022-12-18T09:58:04;10.50;;;9.40;;
40931;SDS011;36257;46.052;12.540;2022-12-18T10:00:37;13.35;;;11.02;;
40931;SDS011;36257;46.052;12.540;2022-12-18T10:03:09;9.40;;;8.50;;
40931;SDS011;36257;46.052;12.540;2022-12-18T10:11:09;15.60;;;11.75;;
40931;SDS011;36257;46.052;12.540;2022-12-18T10:14:40;18.77;;;14.45;;
40931;SDS011;36257;46.052;12.540;2022-12-18T10:17:02;17.73;;;11.98;;
40931;SDS011;36257;46.052;12.540;2022-12-18T10:19:56;13.30;;;11.65;;
40931;SDS011;36257;46.052;12.540;2022-12-18T10:25:28;10.25;;;9.23;;
40931;SDS011;36257;46.052;12.540;2022-12-18T10:27:56;9.05;;;8.02;;
40931;SDS011;36257;46.052;12.540;2022-12-18T10:30:25;8.55;;;7.65;;
40931;SDS011;36257;46.052;12.540;2022-12-18T10:32:51;9.15;;;8.25;;
40931;SDS011;36257;46.052;12.540;2022-12-18T10:40:57;9.00;;;7.32;;
40931;SDS011;36257;46.052;12.540;2022-12-18T10:43:28;8.90;;;8.02;;
40931;SDS011;36257;46.052;12.540;2022-12-18T10:48:30;9.25;;;8.23;;
40931;SDS011;36257;46.052;12.540;2022-12-18T10:50:58;10.68;;;8.98;;
40931;SDS011;36257;46.052;12.540;2022-12-18T10:53:25;9.05;;;8.15;;
40931;SDS011;36257;46.052;12.540;2022-12-18T10:55:53;9.32;;;8.43;;
40931;SDS011;36257;46.052;12.540;2022-12-18T10:58:28;10.20;;;9.23;;
40931;SDS011;36257;46.052;12.540;2022-12-18T11:01:15;9.75;;;8.73;;
40931;SDS011;36257;46.052;12.540;2022-12-18T11:03:46;10.27;;;9.18;;
40931;SDS011;36257;46.052;12.540;2022-12-18T11:06:24;11.30;;;9.27;;
40931;SDS011;36257;46.052;12.540;2022-12-18T11:08:58;17.13;;;10.03;;
40931;SDS011;36257;46.052;12.540;2022-12-18T11:11:24;10.68;;;9.35;;
40931;SDS011;36257;46.052;12.540;2022-12-18T11:21:46;10.57;;;9.48;;
40931;SDS011;36257;46.052;12.540;2022-12-18T11:24:18;9.50;;;8.35;;
40931;SDS011;36257;46.052;12.540;2022-12-18T11:26:53;11.18;;;9.10;;
40931;SDS011;36257;46.052;12.540;2022-12-18T11:29:23;11.45;;;10.10;;
40931;SDS011;36257;46.052;12.540;2022-12-18T11:32:09;13.15;;;9.57;;
40931;SDS011;36257;46.052;12.540;2022-12-18T11:34:46;9.77;;;8.77;;
40931;SDS011;36257;46.052;12.540;2022-12-18T11:37:16;10.20;;;9.10;;
40931;SDS011;36257;46.052;12.540;2022-12-18T11:39:46;8.90;;;7.95;;
40931;SDS011;36257;46.052;12.540;2022-12-18T11:42:25;10.05;;;9.05;;
40931;SDS011;36257;46.052;12.540;2022-12-18T11:53:15;9.25;;;8.30;;
40931;SDS011;36257;46.052;12.540;2022-12-18T11:55:44;9.95;;;8.93;;
40931;SDS011;36257;46.052;12.540;2022-12-18T12:03:54;12.25;;;11.05;;
40931;SDS011;36257;46.052;12.540;2022-12-18T12:09:23;9.57;;;8.68;;
40931;SDS011;36257;46.052;12.540;2022-12-18T12:14:24;9.93;;;8.98;;
40931;SDS011;36257;46.052;12.540;2022-12-18T12:25:23;10.48;;;9.52;;
40931;SDS011;36257;46.052;12.540;2022-12-18T12:33:26;9.57;;;8.63;;
40931;SDS011;36257;46.052;12.540;2022-12-18T12:38:41;9.50;;;8.38;;
40931;SDS011;36257;46.052;12.540;2022-12-18T12:41:12;9.93;;;8.20;;
40931;SDS011;36257;46.052;12.540;2022-12-18T12:43:59;9.93;;;8.93;;
40931;SDS011;36257;46.052;12.540;2022-12-18T12:46:30;8.45;;;7.65;;
40931;SDS011;36257;46.052;12.540;2022-12-18T12:49:04;10.10;;;8.38;;
40931;SDS011;36257;46.052;12.540;2022-12-18T12:51:40;9.32;;;8.27;;
40931;SDS011;36257;46.052;12.540;2022-12-18T12:54:14;9.55;;;8.55;;
40931;SDS011;36257;46.052;12.540;2022-12-18T12:59:37;9.18;;;8.38;;
40931;SDS011;36257;46.052;12.540;2022-12-18T13:05:24;9.80;;;8.82;;
40931;SDS011;36257;46.052;12.540;2022-12-18T13:08:04;11.02;;;9.88;;
40931;SDS011;36257;46.052;12.540;2022-12-18T13:18:12;10.65;;;9.60;;
40931;SDS011;36257;46.052;12.540;2022-12-18T13:20:47;11.00;;;8.57;;
40931;SDS011;36257;46.052;12.540;2022-12-18T13:23:25;13.43;;;10.60;;
40931;SDS011;36257;46.052;12.540;2022-12-18T13:30:59;9.95;;;9.05;;
40931;SDS011;36257;46.052;12.540;2022-12-18T13:35:55;12.13;;;9.73;;
40931;SDS011;36257;46.052;12.540;2022-12-18T13:41:35;10.65;;;9.52;;
40931;SDS011;36257;46.052;12.540;2022-12-18T13:44:22;10.85;;;9.75;;
40931;SDS011;36257;46.052;12.540;2022-12-18T13:47:25;9.30;;;8.40;;
40931;SDS011;36257;46.052;12.540;2022-12-18T13:53:00;10.63;;;9.52;;
40931;SDS011;36257;46.052;12.540;2022-12-18T13:55:26;10.32;;;9.27;;
40931;SDS011;36257;46.052;12.540;2022-12-18T13:58:04;10.50;;;9.43;;
40931;SDS011;36257;46.052;12.540;2022-12-18T14:00:30;11.43;;;10.23;;
40931;SDS011;36257;46.052;12.540;2022-12-18T14:02:57;11.85;;;10.63;;
40931;SDS011;36257;46.052;12.540;2022-12-18T14:07:59;11.32;;;10.10;;
40931;SDS011;36257;46.052;12.540;2022-12-18T14:10:28;12.10;;;10.73;;
40931;SDS011;36257;46.052;12.540;2022-12-18T14:12:53;13.18;;;10.68;;
40931;SDS011;36257;46.052;12.540;2022-12-18T14:17:55;11.07;;;9.98;;
40931;SDS011;36257;46.052;12.540;2022-12-18T14:20:24;11.90;;;10.15;;
40931;SDS011;36257;46.052;12.540;2022-12-18T14:27:50;12.02;;;9.95;;
40931;SDS011;36257;46.052;12.540;2022-12-18T14:35:26;11.65;;;10.32;;
40931;SDS011;36257;46.052;12.540;2022-12-18T14:37:52;13.35;;;11.85;;
40931;SDS011;36257;46.052;12.540;2022-12-18T14:40:17;16.65;;;11.68;;
40931;SDS011;36257;46.052;12.540;2022-12-18T14:42:43;14.10;;;11.75;;
40931;SDS011;36257;46.052;12.540;2022-12-18T14:50:36;17.45;;;12.82;;
40931;SDS011;36257;46.052;12.540;2022-12-18T14:53:03;19.10;;;13.98;;
40931;SDS011;36257;46.052;12.540;2022-12-18T14:55:29;17.73;;;13.27;;
40931;SDS011;36257;46.052;12.540;2022-12-18T14:57:55;15.82;;;13.02;;
40931;SDS011;36257;46.052;12.540;2022-12-18T15:00:23;21.77;;;16.88;;
40931;SDS011;36257;46.052;12.540;2022-12-18T15:02:52;23.98;;;17.95;;
40931;SDS011;36257;46.052;12.540;2022-12-18T15:05:26;16.92;;;14.35;;
40931;SDS011;36257;46.052;12.540;2022-12-18T15:07:57;15.82;;;13.88;;
40931;SDS011;36257;46.052;12.540;2022-12-18T15:10:31;16.08;;;12.13;;
40931;SDS011;36257;46.052;12.540;2022-12-18T15:20:43;20.10;;;16.07;;
40931;SDS011;36257;46.052;12.540;2022-12-18T15:23:38;19.73;;;14.73;;
40931;SDS011;36257;46.052;12.540;2022-12-18T15:26:13;26.00;;;20.47;;
40931;SDS011;36257;46.052;12.540;2022-12-18T15:28:45;38.70;;;26.03;;
40931;SDS011;36257;46.052;12.540;2022-12-18T15:33:42;17.30;;;15.03;;
40931;SDS011;36257;46.052;12.540;2022-12-18T15:36:18;17.73;;;15.80;;
40931;SDS011;36257;46.052;12.540;2022-12-18T15:38:48;15.77;;;14.27;;
40931;SDS011;36257;46.052;12.540;2022-12-18T15:41:15;16.23;;;13.53;;
40931;SDS011;36257;46.052;12.540;2022-12-18T15:43:46;15.97;;;14.17;;
40931;SDS011;36257;46.052;12.540;2022-12-18T15:48:44;15.07;;;13.37;;
40931;SDS011;36257;46.052;12.540;2022-12-18T15:51:16;13.97;;;12.57;;
40931;SDS011;36257;46.052;12.540;2022-12-18T15:53:48;13.93;;;12.63;;
40931;SDS011;36257;46.052;12.540;2022-12-18T15:56:16;13.23;;;11.83;;
40931;SDS011;36257;46.052;12.540;2022-12-18T15:59:01;15.40;;;13.80;;
40931;SDS011;36257;46.052;12.540;2022-12-18T16:01:28;16.33;;;13.93;;
40931;SDS011;36257;46.052;12.540;2022-12-18T16:03:55;16.10;;;14.18;;
40931;SDS011;36257;46.052;12.540;2022-12-18T16:06:21;18.63;;;14.90;;
40931;SDS011;36257;46.052;12.540;2022-12-18T16:08:47;22.53;;;16.53;;
40931;SDS011;36257;46.052;12.540;2022-12-18T16:11:23;20.97;;;15.43;;
40931;SDS011;36257;46.052;12.540;2022-12-18T16:16:51;20.37;;;15.43;;
40931;SDS011;36257;46.052;12.540;2022-12-18T16:19:20;20.03;;;15.63;;
40931;SDS011;36257;46.052;12.540;2022-12-18T16:21:47;21.47;;;17.43;;
40931;SDS011;36257;46.052;12.540;2022-12-18T16:24:16;18.17;;;16.23;;
40931;SDS011;36257;46.052;12.540;2022-12-18T16:26:49;17.77;;;14.47;;
40931;SDS011;36257;46.052;12.540;2022-12-18T16:29:16;16.63;;;14.43;;
40931;SDS011;36257;46.052;12.540;2022-12-18T16:31:42;17.13;;;14.50;;
40931;SDS011;36257;46.052;12.540;2022-12-18T16:34:18;16.93;;;15.13;;
40931;SDS011;36257;46.052;12.540;2022-12-18T16:36:50;15.47;;;13.80;;
40931;SDS011;36257;46.052;12.540;2022-12-18T16:39:16;16.17;;;14.47;;
40931;SDS011;36257;46.052;12.540;2022-12-18T16:41:42;24.17;;;18.03;;
40931;SDS011;36257;46.052;12.540;2022-12-18T16:44:08;24.80;;;20.17;;
40931;SDS011;36257;46.052;12.540;2022-12-18T16:46:35;22.47;;;19.63;;
40931;SDS011;36257;46.052;12.540;2022-12-18T16:49:01;22.37;;;16.77;;
40931;SDS011;36257;46.052;12.540;2022-12-18T16:51:27;18.23;;;15.40;;
40931;SDS011;36257;46.052;12.540;2022-12-18T16:53:54;20.93;;;17.93;;
40931;SDS011;36257;46.052;12.540;2022-12-18T16:56:20;15.00;;;13.00;;
40931;SDS011;36257;46.052;12.540;2022-12-18T16:58:50;15.63;;;14.03;;
40931;SDS011;36257;46.052;12.540;2022-12-18T17:01:20;16.17;;;14.47;;
40931;SDS011;36257;46.052;12.540;2022-12-18T17:06:25;18.00;;;15.67;;
40931;SDS011;36257;46.052;12.540;2022-12-18T17:08:59;16.67;;;13.67;;
40931;SDS011;36257;46.052;12.540;2022-12-18T17:11:28;18.87;;;14.27;;
40931;SDS011;36257;46.052;12.540;2022-12-18T17:13:55;14.07;;;12.67;;
40931;SDS011;36257;46.052;12.540;2022-12-18T17:16:21;16.73;;;13.33;;
40931;SDS011;36257;46.052;12.540;2022-12-18T17:18:47;15.03;;;13.33;;